createdAt,value
2019-05-03T00:02:01.981Z,44.83
2019-05-03T00:04:31.587Z,52.00
2019-05-03T00:06:59.831Z,54.70
2019-05-03T00:09:28.048Z,49.80
2019-05-03T00:11:56.481Z,59.53
2019-05-03T00:14:25.382Z,47.57
2019-05-03T00:16:53.635Z,56.50
2019-05-03T00:19:21.994Z,49.37
2019-05-03T00:21:52.464Z,48.37
2019-05-03T00:24:20.248Z,47.57
2019-05-03T00:26:48.435Z,44.43
2019-05-03T00:29:16.615Z,43.13
2019-05-03T00:31:44.792Z,45.13
2019-05-03T00:34:14.617Z,40.87
2019-05-03T00:36:44.388Z,39.70
2019-05-03T00:39:16.788Z,36.33
2019-05-03T00:41:44.911Z,33.80
2019-05-03T00:44:13.032Z,36.70
2019-05-03T00:46:42.154Z,30.47
2019-05-03T00:49:12.010Z,34.83
2019-05-03T00:51:42.308Z,30.53
2019-05-03T00:54:10.141Z,30.47
2019-05-03T00:56:38.258Z,28.37
2019-05-03T00:59:06.763Z,29.20
2019-05-03T01:01:34.879Z,30.27
2019-05-03T01:04:03.024Z,31.03
2019-05-03T01:06:31.859Z,33.40
2019-05-03T01:09:00.284Z,28.03
2019-05-03T01:11:28.396Z,29.87
2019-05-03T01:13:56.588Z,29.37
2019-05-03T01:16:25.476Z,29.13
2019-05-03T01:18:53.674Z,28.20
2019-05-03T01:21:22.512Z,31.17
2019-05-03T01:23:52.533Z,32.37
2019-05-03T01:26:22.584Z,29.17
2019-05-03T01:28:52.134Z,28.50
2019-05-03T01:31:22.520Z,28.53
2019-05-03T01:33:51.639Z,30.10
2019-05-03T01:36:20.215Z,30.23
2019-05-03T01:38:48.328Z,33.97
2019-05-03T01:41:16.555Z,29.20
2019-05-03T01:43:44.678Z,29.17
2019-05-03T01:46:12.873Z,29.17
2019-05-03T01:48:52.231Z,30.83
2019-05-03T01:51:41.953Z,28.70
2019-05-03T01:54:12.187Z,28.37
2019-05-03T01:56:43.294Z,29.60
2019-05-03T01:59:10.019Z,28.87
2019-05-03T02:01:45.701Z,27.90
2019-05-03T02:04:15.476Z,26.80
2019-05-03T02:06:43.591Z,27.60
2019-05-03T02:09:12.281Z,28.67
2019-05-03T02:11:42.101Z,27.93
2019-05-03T02:14:12.221Z,24.87
2019-05-03T02:16:42.013Z,26.80
2019-05-03T02:19:10.250Z,28.53
2019-05-03T02:21:38.437Z,28.47
2019-05-03T02:24:06.564Z,30.33
2019-05-03T02:26:34.685Z,28.03
2019-05-03T02:29:02.914Z,28.57
2019-05-03T02:31:32.829Z,25.27
2019-05-03T02:34:03.289Z,24.60
2019-05-03T02:36:33.462Z,24.83
2019-05-03T02:39:02.925Z,28.37
2019-05-03T02:41:30.437Z,24.77
2019-05-03T02:43:59.536Z,26.53
2019-05-03T02:46:47.829Z,27.83
2019-05-03T02:49:20.261Z,28.17
2019-05-03T02:51:48.397Z,28.37
2019-05-03T02:54:16.516Z,30.40
2019-05-03T02:56:46.002Z,26.83
2019-05-03T02:59:15.795Z,30.30
2019-05-03T03:01:46.482Z,28.87
2019-05-03T03:04:15.747Z,27.70
2019-05-03T03:06:45.559Z,31.00
2019-05-03T03:09:16.475Z,27.80
2019-05-03T03:11:46.039Z,29.63
2019-05-03T03:14:16.754Z,25.80
2019-05-03T03:16:46.067Z,26.63
2019-05-03T03:19:16.036Z,26.53
2019-05-03T03:21:46.814Z,25.87
2019-05-03T03:24:17.351Z,26.60
2019-05-03T03:26:47.592Z,26.53
2019-05-03T03:29:17.696Z,27.17
2019-05-03T03:31:57.955Z,29.90
2019-05-03T03:34:30.640Z,30.87
2019-05-03T03:37:04.768Z,30.30
2019-05-03T03:39:28.941Z,31.27
2019-05-03T03:41:57.425Z,27.67
2019-05-03T03:44:26.723Z,32.83
2019-05-03T03:46:56.147Z,33.80
2019-05-03T03:49:26.325Z,29.33
2019-05-03T03:51:56.423Z,27.20
2019-05-03T03:54:26.028Z,32.13
2019-05-03T03:57:03.392Z,30.53
2019-05-03T03:59:26.611Z,31.00
2019-05-03T04:01:55.308Z,24.80
2019-05-03T04:04:26.065Z,28.47
2019-05-03T04:06:58.573Z,22.37
2019-05-03T04:09:25.566Z,21.90
2019-05-03T04:11:53.469Z,28.60
2019-05-03T04:14:25.412Z,26.57
2019-05-03T04:17:07.083Z,26.27
2019-05-03T04:19:37.014Z,29.60
2019-05-03T04:22:05.938Z,25.57
2019-05-03T04:24:35.189Z,34.43
2019-05-03T04:27:18.623Z,26.23
2019-05-03T04:29:36.712Z,25.63
2019-05-03T04:32:06.153Z,26.90
2019-05-03T04:34:35.852Z,27.73
2019-05-03T04:37:05.508Z,30.67
2019-05-03T04:39:35.877Z,24.70
2019-05-03T04:42:06.364Z,25.97
2019-05-03T04:44:35.756Z,21.87
2019-05-03T04:47:06.339Z,28.03
2019-05-03T04:49:35.969Z,23.73
2019-05-03T04:52:05.847Z,26.23
2019-05-03T04:54:35.603Z,22.67
2019-05-03T04:57:06.625Z,22.60
2019-05-03T04:59:35.849Z,28.43
2019-05-03T05:02:06.068Z,24.63
2019-05-03T05:04:35.702Z,21.23
2019-05-03T05:07:06.115Z,20.07
2019-05-03T05:09:34.904Z,20.40
2019-05-03T05:12:05.746Z,19.97
2019-05-03T05:14:35.234Z,22.17
2019-05-03T05:17:06.138Z,19.57
2019-05-03T05:19:48.004Z,16.10
2019-05-03T05:22:17.805Z,19.53
2019-05-03T05:24:45.993Z,17.13
2019-05-03T05:27:15.739Z,21.63
2019-05-03T05:29:45.079Z,22.03
2019-05-03T05:32:14.466Z,21.27
2019-05-03T05:34:42.844Z,21.97
2019-05-03T05:37:10.977Z,19.63
2019-05-03T05:39:39.116Z,19.60
2019-05-03T05:42:07.228Z,15.30
2019-05-03T05:44:35.363Z,18.63
2019-05-03T05:47:08.141Z,18.77
2019-05-03T05:49:40.461Z,15.07
2019-05-03T05:52:08.672Z,19.20
2019-05-03T05:54:38.596Z,15.10
2019-05-03T05:57:25.590Z,16.80
2019-05-03T06:00:12.281Z,19.07
2019-05-03T06:02:40.405Z,18.07
2019-05-03T06:05:08.588Z,16.97
2019-05-03T06:07:55.087Z,15.80
2019-05-03T06:10:27.387Z,17.07
2019-05-03T06:13:15.220Z,15.30
2019-05-03T06:15:47.988Z,21.13
2019-05-03T06:18:29.759Z,17.20
2019-05-03T06:21:11.820Z,22.90
2019-05-03T06:23:47.696Z,23.97
2019-05-03T06:26:34.671Z,19.80
2019-05-03T06:29:04.615Z,17.67
2019-05-03T06:31:34.870Z,16.37
2019-05-03T06:34:04.537Z,18.30
2019-05-03T06:36:32.808Z,15.77
2019-05-03T06:39:00.930Z,15.07
2019-05-03T06:41:29.131Z,26.93
2019-05-03T06:43:57.329Z,17.97
2019-05-03T06:46:45.643Z,15.23
2019-05-03T06:49:15.176Z,12.33
2019-05-03T06:51:45.650Z,12.80
2019-05-03T06:54:15.541Z,10.10
2019-05-03T06:56:45.014Z,10.87
2019-05-03T06:59:14.829Z,11.00
2019-05-03T07:01:50.922Z,12.33
2019-05-03T07:04:24.557Z,10.70
2019-05-03T07:07:00.993Z,9.80
2019-05-03T07:09:37.015Z,10.27
2019-05-03T07:12:05.189Z,8.50
2019-05-03T07:14:34.915Z,11.67
2019-05-03T07:17:05.392Z,10.23
2019-05-03T07:19:35.217Z,10.77
2019-05-03T07:22:04.854Z,10.97
2019-05-03T07:24:37.593Z,9.87
2019-05-03T07:27:02.671Z,10.93
2019-05-03T07:29:30.799Z,12.53
2019-05-03T07:31:58.914Z,14.17
2019-05-03T07:34:27.020Z,11.47
2019-05-03T07:36:55.535Z,13.07
2019-05-03T07:39:24.535Z,11.10
2019-05-03T07:41:54.581Z,10.60
2019-05-03T07:44:22.688Z,14.93
2019-05-03T07:46:50.817Z,11.47
2019-05-03T07:49:18.928Z,12.53
2019-05-03T07:51:47.065Z,10.47
2019-05-03T07:54:15.768Z,11.50
2019-05-03T07:56:48.379Z,10.07
2019-05-03T07:59:16.530Z,10.23
2019-05-03T08:01:46.290Z,10.67
2019-05-03T08:04:15.408Z,11.47
2019-05-03T08:06:44.608Z,11.83
2019-05-03T08:09:12.893Z,11.83
2019-05-03T08:11:41.008Z,10.73
2019-05-03T08:14:09.138Z,10.67
2019-05-03T08:16:37.325Z,8.60
2019-05-03T08:19:05.528Z,11.73
2019-05-03T08:21:38.055Z,7.77
2019-05-03T08:24:04.536Z,9.27
2019-05-03T08:26:34.861Z,10.27
2019-05-03T08:29:15.851Z,8.87
2019-05-03T08:31:46.103Z,8.77
2019-05-03T08:34:21.664Z,8.70
2019-05-03T08:37:06.872Z,8.77
2019-05-03T08:39:35.612Z,9.17
2019-05-03T08:42:14.867Z,10.13
2019-05-03T08:44:38.635Z,8.83
2019-05-03T08:47:07.001Z,10.33
2019-05-03T08:49:35.211Z,5.93
2019-05-03T08:52:05.256Z,4.77
2019-05-03T08:54:34.771Z,7.07
2019-05-03T08:57:03.177Z,12.73
2019-05-03T08:59:32.671Z,6.17
2019-05-03T09:02:03.687Z,7.97
2019-05-03T09:04:37.349Z,6.03
2019-05-03T09:07:01.206Z,6.63
2019-05-03T09:09:31.042Z,4.33
2019-05-03T09:11:59.152Z,7.23
2019-05-03T09:14:38.726Z,9.00
2019-05-03T09:16:57.281Z,9.07
2019-05-03T09:19:25.520Z,6.03
2019-05-03T09:21:54.857Z,6.63
2019-05-03T09:24:24.598Z,7.00
2019-05-03T09:26:52.899Z,10.33
2019-05-03T09:29:21.008Z,5.00
2019-05-03T09:31:49.204Z,8.67
2019-05-03T09:34:17.321Z,8.50
2019-05-03T09:36:45.776Z,5.73
2019-05-03T09:39:14.905Z,7.50
2019-05-03T09:41:45.049Z,5.40
2019-05-03T09:44:15.085Z,6.23
2019-05-03T09:46:44.663Z,4.33
2019-05-03T09:49:16.272Z,6.83
2019-05-03T09:51:44.429Z,9.23
2019-05-03T09:54:16.996Z,6.37
2019-05-03T09:56:58.811Z,6.07
2019-05-03T09:59:30.138Z,7.43
2019-05-03T10:01:58.842Z,4.37
2019-05-03T10:04:26.982Z,6.00
2019-05-03T10:06:55.088Z,5.43
2019-05-03T10:09:25.832Z,8.03
2019-05-03T10:11:55.128Z,4.63
2019-05-03T10:14:23.308Z,4.07
2019-05-03T10:16:54.717Z,4.43
2019-05-03T10:19:36.283Z,6.80
2019-05-03T10:21:52.871Z,6.17
2019-05-03T10:24:21.005Z,7.03
2019-05-03T10:26:49.121Z,6.47
2019-05-03T10:29:17.254Z,7.57
2019-05-03T10:32:05.344Z,8.60
2019-05-03T10:34:35.306Z,7.07
2019-05-03T10:37:05.231Z,7.20
2019-05-03T10:39:33.560Z,3.63
2019-05-03T10:42:02.062Z,5.70
2019-05-03T10:44:30.188Z,7.23
2019-05-03T10:46:58.372Z,4.50
2019-05-03T10:49:26.484Z,6.20
2019-05-03T10:51:59.329Z,6.13
2019-05-03T10:54:27.432Z,6.13
2019-05-03T10:57:05.140Z,4.10
2019-05-03T10:59:32.881Z,4.50
2019-05-03T11:02:19.321Z,6.27
2019-05-03T11:04:47.596Z,4.23
2019-05-03T11:07:15.730Z,4.63
2019-05-03T11:09:49.532Z,4.67
2019-05-03T11:12:14.796Z,6.30
2019-05-03T11:14:43.102Z,6.57
2019-05-03T11:17:14.746Z,4.43
2019-05-03T11:19:42.720Z,7.30
2019-05-03T11:22:10.853Z,8.27
2019-05-03T11:24:38.956Z,5.60
2019-05-03T11:27:08.820Z,6.77
2019-05-03T11:29:36.928Z,5.03
2019-05-03T11:32:09.473Z,7.13
2019-05-03T11:34:38.468Z,5.43
2019-05-03T11:37:11.618Z,4.93
2019-05-03T11:39:39.740Z,7.20
2019-05-03T11:42:07.931Z,4.73
2019-05-03T11:44:38.941Z,3.37
2019-05-03T11:47:07.973Z,4.67
2019-05-03T11:49:36.373Z,4.40
2019-05-03T11:52:06.466Z,6.03
2019-05-03T11:54:35.874Z,7.57
2019-05-03T11:57:06.036Z,6.33
2019-05-03T11:59:34.506Z,6.40
2019-05-03T12:02:04.822Z,6.80
2019-05-03T12:04:35.245Z,6.93
2019-05-03T12:07:03.987Z,4.00
2019-05-03T12:09:32.944Z,6.03
2019-05-03T12:12:01.416Z,5.90
2019-05-03T12:14:29.575Z,7.03
2019-05-03T12:17:18.106Z,5.03
2019-05-03T12:19:37.604Z,6.10
2019-05-03T12:22:06.221Z,5.97
2019-05-03T12:24:36.247Z,7.10
2019-05-03T12:27:05.029Z,6.37
2019-05-03T12:29:35.155Z,6.27
2019-05-03T12:32:05.119Z,4.23
2019-05-03T12:34:35.215Z,4.83
2019-05-03T12:37:04.951Z,4.17
2019-05-03T12:39:35.729Z,5.63
2019-05-03T12:42:05.656Z,4.37
2019-05-03T12:44:35.270Z,5.70
2019-05-03T12:47:03.632Z,4.97
2019-05-03T12:49:32.744Z,4.00
2019-05-03T12:52:00.973Z,5.67
2019-05-03T12:54:29.094Z,3.93
2019-05-03T12:56:57.220Z,7.17
2019-05-03T12:59:36.037Z,6.90
2019-05-03T13:02:15.634Z,5.97
2019-05-03T13:04:45.351Z,4.77
2019-05-03T13:07:20.889Z,5.63
2019-05-03T13:09:49.081Z,6.30
2019-05-03T13:12:18.840Z,7.57
2019-05-03T13:14:46.952Z,4.93
2019-05-03T13:17:17.069Z,6.23
2019-05-03T13:19:45.352Z,5.10
2019-05-03T13:22:13.609Z,4.63
2019-05-03T13:24:41.724Z,4.43
2019-05-03T13:27:09.839Z,3.67
2019-05-03T13:29:38.317Z,4.17
2019-05-03T13:32:06.432Z,3.80
2019-05-03T13:34:35.369Z,4.97
2019-05-03T13:37:03.821Z,4.30
2019-05-03T13:39:32.034Z,6.37
2019-05-03T13:42:00.617Z,9.03
2019-05-03T13:44:28.836Z,6.17
2019-05-03T13:46:56.949Z,6.80
2019-05-03T13:49:26.418Z,5.03
2019-05-03T13:51:54.867Z,6.33
2019-05-03T13:54:23.066Z,6.93
2019-05-03T13:56:51.178Z,6.03
2019-05-03T13:59:22.094Z,5.70
2019-05-03T14:01:49.151Z,6.33
2019-05-03T14:04:17.376Z,8.03
2019-05-03T14:06:45.517Z,6.00
2019-05-03T14:09:13.626Z,8.53
2019-05-03T14:11:41.752Z,5.67
2019-05-03T14:14:09.860Z,7.57
2019-05-03T14:16:37.988Z,10.83
2019-05-03T14:19:07.745Z,4.53
2019-05-03T14:21:40.070Z,5.27
2019-05-03T14:24:12.620Z,4.70
2019-05-03T14:26:41.487Z,5.03
2019-05-03T14:29:09.660Z,8.33
2019-05-03T14:31:37.851Z,5.30
2019-05-03T14:34:06.316Z,8.70
2019-05-03T14:36:35.890Z,7.93
2019-05-03T14:39:09.222Z,6.00
2019-05-03T14:41:35.955Z,6.17
2019-05-03T14:44:04.982Z,9.53
2019-05-03T14:46:35.682Z,6.77
2019-05-03T14:49:05.338Z,7.47
2019-05-03T14:51:34.853Z,7.43
2019-05-03T14:54:04.900Z,7.27
2019-05-03T14:56:45.563Z,8.00
2019-05-03T14:59:32.171Z,7.87
2019-05-03T15:02:07.921Z,9.30
2019-05-03T15:04:36.462Z,9.60
2019-05-03T15:07:06.107Z,8.03
2019-05-03T15:09:35.299Z,10.83
2019-05-03T15:12:05.356Z,11.23
2019-05-03T15:14:34.617Z,9.37
2019-05-03T15:17:05.153Z,10.57
2019-05-03T15:19:34.831Z,11.47
2019-05-03T15:22:02.809Z,14.30
2019-05-03T15:24:30.954Z,10.70
2019-05-03T15:26:59.064Z,10.57
2019-05-03T15:29:27.199Z,12.23
2019-05-03T15:31:55.392Z,10.43
2019-05-03T15:34:23.508Z,12.83
2019-05-03T15:36:51.925Z,13.27
2019-05-03T15:39:20.031Z,8.80
2019-05-03T15:41:48.168Z,10.53
2019-05-03T15:44:17.935Z,8.70
2019-05-03T15:46:47.771Z,7.50
2019-05-03T15:49:16.161Z,7.73
2019-05-03T15:51:44.652Z,9.33
2019-05-03T15:54:12.954Z,8.83
2019-05-03T15:56:41.114Z,10.33
2019-05-03T15:59:09.289Z,7.60
2019-05-03T16:01:37.952Z,10.83
2019-05-03T16:04:06.312Z,10.70
2019-05-03T16:06:34.524Z,8.03
2019-05-03T16:09:04.475Z,7.27
2019-05-03T16:11:34.330Z,11.53
2019-05-03T16:14:04.432Z,8.17
2019-05-03T16:16:32.376Z,8.27
2019-05-03T16:19:00.501Z,11.43
2019-05-03T16:21:29.244Z,11.07
2019-05-03T16:23:57.373Z,10.77
2019-05-03T16:26:25.637Z,12.17
2019-05-03T16:28:55.398Z,8.50
2019-05-03T16:31:26.659Z,10.27
2019-05-03T16:33:55.048Z,11.67
2019-05-03T16:36:23.286Z,8.93
2019-05-03T16:38:51.417Z,10.80
2019-05-03T16:41:19.531Z,9.47
2019-05-03T16:43:47.716Z,10.27
2019-05-03T16:46:15.829Z,10.77
2019-05-03T16:48:44.773Z,10.73
2019-05-03T16:51:15.037Z,12.30
2019-05-03T16:53:44.508Z,10.37
2019-05-03T16:56:16.655Z,12.53
2019-05-03T16:58:44.473Z,15.30
2019-05-03T17:01:15.660Z,13.70
2019-05-03T17:03:45.747Z,10.70
2019-05-03T17:06:27.850Z,7.63
2019-05-03T17:08:57.620Z,11.43
2019-05-03T17:11:26.302Z,8.87
2019-05-03T17:13:55.388Z,11.07
2019-05-03T17:16:24.913Z,13.07
2019-05-03T17:18:55.080Z,12.00
2019-05-03T17:21:23.021Z,9.07
2019-05-03T17:23:51.137Z,14.53
2019-05-03T17:26:19.263Z,13.37
2019-05-03T17:28:47.612Z,11.07
2019-05-03T17:31:15.746Z,11.77
2019-05-03T17:33:51.430Z,15.47
2019-05-03T17:36:13.748Z,19.63
2019-05-03T17:38:41.919Z,15.87
2019-05-03T17:41:12.047Z,12.77
2019-05-03T17:43:54.564Z,10.93
2019-05-03T17:46:22.863Z,14.20
2019-05-03T17:48:51.021Z,17.00
2019-05-03T17:51:38.836Z,14.60
2019-05-03T17:54:26.435Z,13.03
2019-05-03T17:56:59.092Z,11.20
2019-05-03T17:59:28.907Z,11.63
2019-05-03T18:02:15.476Z,11.13
2019-05-03T18:04:45.711Z,10.47
2019-05-03T18:07:18.479Z,11.63
2019-05-03T18:09:48.229Z,10.60
2019-05-03T18:12:16.352Z,11.63
2019-05-03T18:14:45.022Z,9.80
2019-05-03T18:17:14.785Z,11.43
2019-05-03T18:19:44.694Z,10.33
2019-05-03T18:22:15.160Z,8.63
2019-05-03T18:24:42.980Z,9.77
2019-05-03T18:27:11.120Z,11.40
2019-05-03T18:29:39.314Z,10.67
2019-05-03T18:32:07.429Z,14.13
2019-05-03T18:34:35.572Z,13.10
2019-05-03T18:37:04.781Z,13.17
2019-05-03T18:39:34.669Z,13.77
2019-05-03T18:42:04.901Z,10.77
2019-05-03T18:44:37.917Z,10.70
2019-05-03T18:47:07.687Z,11.63
2019-05-03T18:49:36.224Z,16.40
2019-05-03T18:52:04.563Z,11.53
2019-05-03T18:54:32.644Z,10.57
2019-05-03T18:57:00.797Z,13.23
2019-05-03T18:59:28.912Z,12.43
2019-05-03T19:01:57.416Z,10.37
2019-05-03T19:04:34.228Z,11.47
2019-05-03T19:07:04.272Z,14.03
2019-05-03T19:09:30.910Z,12.17
2019-05-03T19:12:04.845Z,11.50
2019-05-03T19:14:33.051Z,12.73
2019-05-03T19:17:20.446Z,9.87
2019-05-03T19:19:56.135Z,13.37
2019-05-03T19:22:24.955Z,11.27
2019-05-03T19:24:53.360Z,9.80
2019-05-03T19:27:21.552Z,13.23
2019-05-03T19:29:49.697Z,12.13
2019-05-03T19:32:17.866Z,16.67
2019-05-03T19:34:51.039Z,12.33
2019-05-03T19:37:15.845Z,11.53
2019-05-03T19:39:43.979Z,17.37
2019-05-03T19:42:12.106Z,17.23
2019-05-03T19:44:40.291Z,14.30
2019-05-03T19:47:08.415Z,16.50
2019-05-03T19:49:36.543Z,15.37
2019-05-03T19:52:05.219Z,13.00
2019-05-03T19:54:36.158Z,15.80
2019-05-03T19:57:05.037Z,14.23
2019-05-03T19:59:56.414Z,15.23
2019-05-03T20:02:36.840Z,13.00
2019-05-03T20:05:16.288Z,16.30
2019-05-03T20:08:05.149Z,13.93
2019-05-03T20:10:35.133Z,12.40
2019-05-03T20:13:04.663Z,11.93
2019-05-03T20:15:33.034Z,14.67
2019-05-03T20:18:01.152Z,13.63
2019-05-03T20:20:29.623Z,13.40
2019-05-03T20:22:59.070Z,17.43
2019-05-03T20:25:27.384Z,17.50
2019-05-03T20:27:55.920Z,16.67
2019-05-03T20:30:25.456Z,16.03
2019-05-03T20:32:55.509Z,12.60
2019-05-03T20:35:25.210Z,11.47
2019-05-03T20:37:55.200Z,13.27
2019-05-03T20:40:25.418Z,12.87
2019-05-03T20:42:57.639Z,12.17
2019-05-03T20:45:36.425Z,12.07
2019-05-03T20:48:06.190Z,12.67
2019-05-03T20:50:35.257Z,14.93
2019-05-03T20:53:05.229Z,14.07
2019-05-03T20:55:34.716Z,12.97
2019-05-03T20:58:03.140Z,14.00
2019-05-03T21:00:31.257Z,15.13
2019-05-03T21:02:59.701Z,12.57
2019-05-03T21:05:32.961Z,16.63
2019-05-03T21:07:57.759Z,12.90
2019-05-03T21:10:25.921Z,14.57
2019-05-03T21:12:54.509Z,15.17
2019-05-03T21:15:30.228Z,13.17
2019-05-03T21:18:16.625Z,14.27
2019-05-03T21:20:55.485Z,15.77
2019-05-03T21:23:25.421Z,15.83
2019-05-03T21:26:12.346Z,18.23
2019-05-03T21:28:34.641Z,20.07
2019-05-03T21:31:03.006Z,13.47
2019-05-03T21:33:31.216Z,16.53
2019-05-03T21:35:59.330Z,17.67
2019-05-03T21:38:27.491Z,15.80
2019-05-03T21:40:55.606Z,14.90
2019-05-03T21:43:25.574Z,18.30
2019-05-03T21:46:11.752Z,16.60
2019-05-03T21:48:47.476Z,14.50
2019-05-03T21:51:15.673Z,17.47
2019-05-03T21:53:45.073Z,16.83
2019-05-03T21:56:14.351Z,20.93
2019-05-03T21:58:44.557Z,21.27
2019-05-03T22:01:15.486Z,19.80
2019-05-03T22:03:44.837Z,24.63
2019-05-03T22:06:15.432Z,24.83
2019-05-03T22:08:43.044Z,19.27
2019-05-03T22:11:11.192Z,21.27
2019-05-03T22:13:39.989Z,19.93
2019-05-03T22:16:10.092Z,21.90
2019-05-03T22:18:38.566Z,25.50
2019-05-03T22:21:11.359Z,26.37
2019-05-03T22:23:59.316Z,26.87
2019-05-03T22:26:45.391Z,26.10
2019-05-03T22:29:16.960Z,25.13
2019-05-03T22:31:45.297Z,26.30
2019-05-03T22:34:15.065Z,31.67
2019-05-03T22:36:44.379Z,22.17
2019-05-03T22:39:12.794Z,24.93
2019-05-03T22:41:40.932Z,25.57
2019-05-03T22:44:09.053Z,24.90
2019-05-03T22:46:37.188Z,23.23
2019-05-03T22:49:05.413Z,21.30
2019-05-03T22:51:34.521Z,20.43
2019-05-03T22:54:04.734Z,22.57
2019-05-03T22:56:33.037Z,21.87
2019-05-03T22:59:01.191Z,17.63
2019-05-03T23:01:29.876Z,19.67
2019-05-03T23:03:58.025Z,23.07
2019-05-03T23:06:26.215Z,23.87
2019-05-03T23:08:56.130Z,20.57
2019-05-03T23:11:24.538Z,22.10
2019-05-03T23:14:01.823Z,22.87
2019-05-03T23:16:30.885Z,21.23
2019-05-03T23:18:59.013Z,21.87
2019-05-03T23:21:31.783Z,24.07
2019-05-03T23:23:59.912Z,22.60
2019-05-03T23:26:28.031Z,23.73
2019-05-03T23:28:56.511Z,25.03
2019-05-03T23:31:25.144Z,21.67
2019-05-03T23:33:54.511Z,25.73
2019-05-03T23:36:32.802Z,18.57
2019-05-03T23:38:54.467Z,22.17
2019-05-03T23:41:24.429Z,21.83
2019-05-03T23:43:52.701Z,19.70
2019-05-03T23:46:22.465Z,19.90
2019-05-03T23:48:50.599Z,27.87
2019-05-03T23:51:36.968Z,25.87
2019-05-03T23:54:05.720Z,19.67
2019-05-03T23:56:35.073Z,20.63
2019-05-03T23:59:05.363Z,21.33
